Facebook Twitter

Wetterstation Arriach

aktuelles Wetter
 
  Temperatur Wetter Luftdruck Wind
Do, 17:00 Uhr 22.7 °C - 1016.9 hPa 0 km/h km/h
Do, 16:00 Uhr 22.9 °C - 1016.9 hPa 0 km/h km/h
Do, 15:00 Uhr 21.5 °C - 1018 hPa 0 km/h km/h
Do, 14:00 Uhr 21.3 °C - 1018.5 hPa 0 km/h km/h
Do, 13:00 Uhr 20.4 °C - 1019 hPa 0 km/h km/h
Do, 12:00 Uhr 19.4 °C - 1020 hPa 0 km/h km/h
Do, 11:00 Uhr 17.8 °C - 1021.2 hPa 0 km/h km/h
Do, 10:00 Uhr 16.5 °C - 1021.8 hPa 0 km/h km/h
Do, 09:00 Uhr 15.4 °C - 1022.4 hPa 0 km/h km/h
Do, 08:00 Uhr 14.8 °C - 1022.3 hPa 0 km/h km/h
Do, 07:00 Uhr 13.2 °C - 1022.7 hPa 0 km/h km/h
Do, 06:00 Uhr 13.1 °C - 1022.8 hPa 0 km/h km/h
Do, 05:00 Uhr 13.4 °C - 1022.7 hPa 0 km/h km/h
Do, 04:00 Uhr 14.1 °C - 1022.6 hPa 0 km/h km/h
Do, 03:00 Uhr 14.7 °C - 1022.2 hPa 0 km/h km/h
Do, 02:00 Uhr 15.1 °C - 1022.3 hPa 0 km/h km/h
Do, 01:00 Uhr 15.4 °C - 1022.7 hPa 0 km/h km/h
Do, 00:00 Uhr 15.5 °C - 1022.5 hPa 0 km/h km/h
Mi, 23:00 Uhr 15.4 °C - 1022.4 hPa 0 km/h km/h
Mi, 22:00 Uhr 15.6 °C - 1022.4 hPa 0 km/h km/h

Alle Zeitangaben in Ortszeit (MESZ)